createdAt,value
2022-12-20T00:01:42.023Z,0.80
2022-12-20T00:04:11.533Z,0.70
2022-12-20T00:06:39.236Z,0.70
2022-12-20T00:09:09.863Z,1.10
2022-12-20T00:11:42.017Z,0.93
2022-12-20T00:14:10.871Z,0.77
2022-12-20T00:16:37.995Z,0.60
2022-12-20T00:19:07.299Z,0.80
2022-12-20T00:21:35.754Z,0.88
2022-12-20T00:24:03.575Z,0.63
2022-12-20T00:26:32.682Z,0.80
2022-12-20T00:29:00.643Z,0.70
2022-12-20T00:31:32.199Z,0.75
2022-12-20T00:34:00.828Z,0.80
2022-12-20T00:36:32.482Z,0.60
2022-12-20T00:39:00.851Z,0.65
2022-12-20T00:41:30.686Z,0.73
2022-12-20T00:43:58.143Z,0.82
2022-12-20T00:46:25.787Z,0.60
2022-12-20T00:48:54.003Z,0.60
2022-12-20T00:51:24.492Z,0.85
2022-12-20T00:53:51.433Z,0.73
2022-12-20T00:56:18.937Z,0.60
2022-12-20T00:58:46.100Z,0.63
2022-12-20T01:01:21.285Z,0.80
2022-12-20T01:03:48.933Z,0.60
2022-12-20T01:06:16.340Z,0.50
2022-12-20T01:08:43.694Z,0.70
2022-12-20T01:11:15.157Z,0.80
2022-12-20T01:13:46.005Z,0.77
2022-12-20T01:16:18.523Z,0.60
2022-12-20T01:18:46.407Z,0.50
2022-12-20T01:21:15.589Z,0.60
2022-12-20T01:23:43.120Z,0.77
2022-12-20T01:26:14.207Z,0.60
2022-12-20T01:28:42.829Z,0.45
2022-12-20T01:31:11.953Z,0.60
2022-12-20T01:33:39.398Z,0.77
2022-12-20T01:36:09.078Z,1.00
2022-12-20T01:38:36.316Z,0.45
2022-12-20T01:41:04.293Z,0.70
2022-12-20T01:43:57.603Z,0.50
2022-12-20T01:46:26.980Z,0.57
2022-12-20T01:49:00.233Z,0.50
2022-12-20T01:51:31.004Z,0.40
2022-12-20T01:54:05.705Z,0.60
2022-12-20T01:56:32.698Z,0.80
2022-12-20T01:59:01.118Z,0.70
2022-12-20T02:01:28.159Z,0.60
2022-12-20T02:03:55.871Z,0.43
2022-12-20T02:06:25.960Z,0.57
2022-12-20T02:08:56.994Z,0.68
2022-12-20T02:11:49.963Z,0.60
2022-12-20T02:14:31.630Z,0.93
2022-12-20T02:17:11.255Z,0.75
2022-12-20T02:19:54.961Z,0.45
2022-12-20T02:23:06.231Z,0.60
2022-12-20T02:26:10.091Z,0.50
2022-12-20T02:28:39.792Z,0.60
2022-12-20T02:31:14.091Z,0.63
2022-12-20T02:33:48.306Z,0.60
2022-12-20T02:36:17.278Z,0.50
2022-12-20T02:38:45.035Z,0.70
2022-12-20T02:41:15.311Z,0.70
2022-12-20T02:44:03.341Z,0.40
2022-12-20T02:46:32.920Z,0.70
2022-12-20T02:49:05.208Z,0.40
2022-12-20T02:51:33.679Z,0.45
2022-12-20T02:54:01.939Z,0.60
2022-12-20T02:56:28.747Z,0.50
2022-12-20T02:59:02.852Z,0.60
2022-12-20T03:01:38.143Z,0.40
2022-12-20T03:04:06.024Z,0.63
2022-12-20T03:06:33.034Z,0.80
2022-12-20T03:08:59.869Z,0.55
2022-12-20T03:11:29.771Z,0.50
2022-12-20T03:13:56.667Z,0.40
2022-12-20T03:16:23.585Z,0.50
2022-12-20T03:18:50.576Z,0.50
2022-12-20T03:21:17.434Z,0.60
2022-12-20T03:23:45.361Z,0.68
2022-12-20T03:26:12.250Z,0.50
2022-12-20T03:28:39.067Z,0.50
2022-12-20T03:31:06.281Z,0.80
2022-12-20T03:33:33.139Z,0.60
2022-12-20T03:36:00.019Z,0.70
2022-12-20T03:38:26.916Z,0.77
2022-12-20T03:40:53.775Z,0.60
2022-12-20T03:43:20.617Z,0.70
2022-12-20T03:45:47.558Z,0.60
2022-12-20T03:48:14.462Z,0.98
2022-12-20T03:50:41.696Z,0.60
2022-12-20T03:53:08.729Z,0.75
2022-12-20T03:55:35.568Z,0.90
2022-12-20T03:58:02.433Z,0.50
2022-12-20T04:00:29.708Z,0.70
2022-12-20T04:02:56.782Z,0.77
2022-12-20T04:05:23.831Z,0.80
2022-12-20T04:07:51.178Z,0.60
2022-12-20T04:10:18.215Z,0.88
2022-12-20T04:12:45.107Z,0.75
2022-12-20T04:15:12.074Z,0.70
2022-12-20T04:17:39.012Z,0.50
2022-12-20T04:20:19.346Z,0.50
2022-12-20T04:22:51.529Z,1.23
2022-12-20T04:25:20.793Z,0.98
2022-12-20T04:27:47.585Z,0.57
2022-12-20T04:30:14.677Z,0.80
2022-12-20T04:32:41.585Z,0.60
2022-12-20T04:35:08.832Z,0.75
2022-12-20T04:37:35.842Z,0.70
2022-12-20T04:40:02.642Z,0.75
2022-12-20T04:42:29.522Z,0.70
2022-12-20T04:44:56.489Z,0.57
2022-12-20T04:47:23.605Z,0.60
2022-12-20T04:49:51.060Z,0.85
2022-12-20T04:52:39.661Z,0.88
2022-12-20T04:55:09.869Z,0.52
2022-12-20T04:57:36.705Z,0.60
2022-12-20T05:00:04.555Z,0.80
2022-12-20T05:02:31.557Z,0.60
2022-12-20T05:04:58.499Z,0.52
2022-12-20T05:07:25.363Z,0.70
2022-12-20T05:09:52.255Z,0.75
2022-12-20T05:12:19.049Z,0.60
2022-12-20T05:14:45.958Z,0.82
2022-12-20T05:17:12.777Z,0.60
2022-12-20T05:19:39.689Z,0.75
2022-12-20T05:22:24.821Z,0.88
2022-12-20T05:25:10.368Z,1.08
2022-12-20T05:27:37.307Z,1.20
2022-12-20T05:30:04.923Z,0.70
2022-12-20T05:32:31.865Z,0.68
2022-12-20T05:34:58.767Z,0.75
2022-12-20T05:37:25.621Z,0.70
2022-12-20T05:39:52.446Z,0.90
2022-12-20T05:42:19.290Z,0.70
2022-12-20T05:44:46.265Z,0.85
2022-12-20T05:47:13.380Z,0.70
2022-12-20T05:49:40.700Z,0.95
2022-12-20T05:52:08.014Z,0.70
2022-12-20T05:54:35.096Z,0.90
2022-12-20T05:57:01.869Z,0.68
2022-12-20T05:59:28.671Z,0.80
2022-12-20T06:01:55.653Z,0.90
2022-12-20T06:04:22.830Z,0.93
2022-12-20T06:06:49.713Z,1.23
2022-12-20T06:09:16.661Z,1.08
2022-12-20T06:11:43.523Z,0.70
2022-12-20T06:14:10.417Z,0.93
2022-12-20T06:16:37.343Z,0.95
2022-12-20T06:19:04.210Z,1.20
2022-12-20T06:21:32.306Z,1.27
2022-12-20T06:23:59.569Z,0.70
2022-12-20T06:26:26.353Z,0.80
2022-12-20T06:28:54.975Z,0.75
2022-12-20T06:31:21.954Z,0.77
2022-12-20T06:33:48.889Z,0.80
2022-12-20T06:36:15.771Z,1.00
2022-12-20T06:38:42.640Z,0.90
2022-12-20T06:41:09.481Z,0.90
2022-12-20T06:43:36.427Z,0.90
2022-12-20T06:46:03.359Z,0.82
2022-12-20T06:48:30.471Z,0.90
2022-12-20T06:50:57.349Z,1.02
2022-12-20T06:53:24.299Z,0.85
2022-12-20T06:55:51.731Z,1.08
2022-12-20T06:58:19.267Z,1.20
2022-12-20T07:00:46.633Z,1.70
2022-12-20T07:03:14.245Z,1.25
2022-12-20T07:05:42.058Z,1.33
2022-12-20T07:08:09.370Z,1.60
2022-12-20T07:10:37.571Z,1.88
2022-12-20T07:13:04.523Z,1.30
2022-12-20T07:15:31.788Z,1.40
2022-12-20T07:17:59.689Z,1.75
2022-12-20T07:20:26.736Z,1.80
2022-12-20T07:22:53.790Z,2.17
2022-12-20T07:25:20.913Z,2.00
2022-12-20T07:27:52.724Z,1.88
2022-12-20T07:30:20.806Z,1.48
2022-12-20T07:32:48.273Z,2.53
2022-12-20T07:35:15.566Z,2.42
2022-12-20T07:37:44.347Z,2.30
2022-12-20T07:40:12.083Z,1.73
2022-12-20T07:42:44.464Z,2.50
2022-12-20T07:45:13.410Z,2.42
2022-12-20T07:47:40.330Z,2.15
2022-12-20T07:50:08.050Z,1.95
2022-12-20T07:52:35.905Z,1.90
2022-12-20T07:55:07.359Z,1.20
2022-12-20T07:57:53.360Z,1.75
2022-12-20T08:00:21.186Z,1.90
2022-12-20T08:02:55.366Z,1.40
2022-12-20T08:05:23.652Z,1.80
2022-12-20T08:07:58.459Z,1.73
2022-12-20T08:10:26.881Z,1.20
2022-12-20T08:12:54.808Z,1.35
2022-12-20T08:15:23.498Z,2.15
2022-12-20T08:17:51.124Z,1.60
2022-12-20T08:20:18.371Z,1.02
2022-12-20T08:22:46.681Z,1.52
2022-12-20T08:25:14.006Z,1.40
2022-12-20T08:27:42.386Z,1.55
2022-12-20T08:30:11.215Z,1.55
2022-12-20T08:32:39.015Z,2.20
2022-12-20T08:35:07.238Z,1.67
2022-12-20T08:37:34.542Z,1.67
2022-12-20T08:40:01.593Z,1.83
2022-12-20T08:42:29.256Z,1.63
2022-12-20T08:44:58.149Z,1.77
2022-12-20T08:47:25.445Z,2.35
2022-12-20T08:49:52.884Z,1.67
2022-12-20T08:52:20.776Z,2.97
2022-12-20T08:54:49.539Z,1.45
2022-12-20T08:57:17.356Z,1.33
2022-12-20T08:59:45.409Z,1.83
2022-12-20T09:02:13.620Z,1.70
2022-12-20T09:04:41.047Z,1.60
2022-12-20T09:07:08.728Z,2.05
2022-12-20T09:09:35.649Z,1.95
2022-12-20T09:12:03.040Z,1.75
2022-12-20T09:14:30.029Z,1.85
2022-12-20T09:16:57.356Z,1.77
2022-12-20T09:19:24.634Z,1.88
2022-12-20T09:21:51.805Z,2.17
2022-12-20T09:24:19.129Z,1.58
2022-12-20T09:26:46.607Z,2.58
2022-12-20T09:29:24.987Z,1.23
2022-12-20T09:31:54.804Z,2.70
2022-12-20T09:34:22.164Z,2.35
2022-12-20T09:36:49.958Z,2.03
2022-12-20T09:39:17.240Z,1.60
2022-12-20T09:41:46.381Z,1.63
2022-12-20T09:44:29.196Z,1.70
2022-12-20T09:47:08.258Z,2.28
2022-12-20T09:49:42.736Z,1.42
2022-12-20T09:52:35.163Z,1.83
2022-12-20T09:55:19.002Z,1.90
2022-12-20T09:58:33.553Z,1.73
2022-12-20T10:01:24.690Z,1.90
2022-12-20T10:03:54.069Z,1.85
2022-12-20T10:07:06.110Z,1.65
2022-12-20T10:10:06.596Z,1.50
2022-12-20T10:12:59.506Z,1.90
2022-12-20T10:15:37.693Z,2.35
2022-12-20T10:18:31.515Z,2.53
2022-12-20T10:21:01.964Z,1.67
2022-12-20T10:23:37.707Z,2.65
2022-12-20T10:26:11.135Z,2.63
2022-12-20T10:28:39.483Z,2.75
2022-12-20T10:31:12.089Z,2.33
2022-12-20T10:33:41.718Z,2.22
2022-12-20T10:36:19.527Z,2.25
2022-12-20T10:38:50.145Z,2.35
2022-12-20T10:41:23.055Z,2.25
2022-12-20T10:44:00.016Z,1.83
2022-12-20T10:46:46.095Z,1.90
2022-12-20T10:49:35.825Z,2.50
2022-12-20T10:52:13.965Z,2.30
2022-12-20T10:54:42.515Z,3.15
2022-12-20T10:57:26.787Z,2.65
2022-12-20T10:59:56.911Z,2.10
2022-12-20T11:02:40.684Z,2.20
2022-12-20T11:05:13.059Z,3.08
2022-12-20T11:10:45.797Z,2.60
2022-12-20T11:13:27.015Z,2.03
2022-12-20T11:15:57.964Z,1.60
2022-12-20T11:19:02.466Z,2.92
2022-12-20T11:21:43.670Z,2.13
2022-12-20T11:24:42.428Z,1.92
2022-12-20T11:27:17.318Z,1.92
2022-12-20T11:29:59.018Z,1.80
2022-12-20T11:32:51.431Z,1.67
2022-12-20T11:35:50.869Z,1.58
2022-12-20T11:38:37.268Z,1.73
2022-12-20T11:41:25.766Z,1.42
2022-12-20T11:47:13.542Z,1.20
2022-12-20T11:49:59.401Z,1.25
2022-12-20T11:52:44.803Z,1.55
2022-12-20T11:55:37.166Z,1.20
2022-12-20T11:58:25.683Z,1.05
2022-12-20T12:01:09.404Z,1.17
2022-12-20T12:03:41.539Z,0.95
2022-12-20T12:06:36.739Z,1.30
2022-12-20T12:09:26.643Z,1.00
2022-12-20T12:12:09.231Z,1.00
2022-12-20T12:14:55.948Z,1.15
2022-12-20T12:17:45.017Z,0.98
2022-12-20T12:20:17.671Z,1.00
2022-12-20T12:22:49.010Z,0.98
2022-12-20T12:25:20.959Z,0.90
2022-12-20T12:27:51.038Z,0.90
2022-12-20T12:30:20.851Z,1.00
2022-12-20T12:32:58.075Z,1.00
2022-12-20T12:35:42.063Z,1.10
2022-12-20T12:38:50.129Z,1.20
2022-12-20T12:41:47.448Z,1.30
2022-12-20T12:44:23.763Z,1.48
2022-12-20T12:47:00.932Z,1.80
2022-12-20T12:49:32.869Z,1.65
2022-12-20T12:52:04.819Z,1.83
2022-12-20T12:54:40.984Z,1.77
2022-12-20T12:57:16.258Z,1.30
2022-12-20T12:59:49.290Z,1.40
2022-12-20T13:02:19.156Z,1.50
2022-12-20T13:04:59.207Z,1.40
2022-12-20T13:07:34.403Z,1.40
2022-12-20T13:10:26.450Z,1.30
2022-12-20T13:13:00.777Z,1.20
2022-12-20T13:15:33.013Z,1.60
2022-12-20T13:18:23.561Z,1.25
2022-12-20T13:21:20.641Z,1.53
2022-12-20T13:24:13.016Z,1.38
2022-12-20T13:26:57.139Z,1.30
2022-12-20T13:29:38.573Z,1.15
2022-12-20T13:32:47.390Z,1.50
2022-12-20T13:35:29.780Z,1.48
2022-12-20T13:38:09.222Z,1.50
2022-12-20T13:40:53.293Z,1.33
2022-12-20T13:43:25.670Z,1.38
2022-12-20T13:46:03.411Z,1.35
2022-12-20T13:48:49.727Z,1.10
2022-12-20T13:51:28.266Z,1.10
2022-12-20T13:54:03.913Z,1.25
2022-12-20T13:56:51.364Z,0.82
2022-12-20T13:59:21.190Z,1.52
2022-12-20T14:01:59.038Z,1.10
2022-12-20T14:04:41.859Z,1.50
2022-12-20T14:07:16.164Z,0.90
2022-12-20T14:09:48.315Z,1.45
2022-12-20T14:12:26.265Z,1.70
2022-12-20T14:14:57.480Z,1.53
2022-12-20T14:17:37.385Z,0.90
2022-12-20T14:20:17.047Z,1.38
2022-12-20T14:23:15.636Z,1.50
2022-12-20T14:25:50.594Z,1.10
2022-12-20T14:28:37.400Z,1.13
2022-12-20T14:31:09.371Z,1.90
2022-12-20T14:33:43.750Z,1.40
2022-12-20T14:36:19.086Z,1.42
2022-12-20T14:38:52.172Z,3.25
2022-12-20T14:41:44.728Z,3.13
2022-12-20T14:44:26.058Z,2.30
2022-12-20T14:47:08.994Z,3.00
2022-12-20T14:49:41.868Z,2.20
2022-12-20T14:52:16.294Z,2.17
2022-12-20T14:55:08.746Z,2.13
2022-12-20T14:57:40.574Z,2.17
2022-12-20T15:00:35.346Z,1.52
2022-12-20T15:03:23.788Z,1.13
2022-12-20T15:06:01.429Z,1.67
2022-12-20T15:08:37.995Z,1.83
2022-12-20T15:11:15.333Z,1.63
2022-12-20T15:13:55.211Z,1.60
2022-12-20T15:16:27.164Z,1.60
2022-12-20T15:19:17.744Z,1.52
2022-12-20T15:21:48.883Z,1.23
2022-12-20T15:26:54.786Z,1.40
2022-12-20T15:29:37.690Z,1.50
2022-12-20T15:32:16.157Z,1.60
2022-12-20T15:34:50.888Z,1.70
2022-12-20T15:37:20.694Z,1.80
2022-12-20T15:39:51.164Z,1.38
2022-12-20T15:42:22.474Z,1.10
2022-12-20T15:44:52.015Z,1.95
2022-12-20T15:47:20.579Z,1.80
2022-12-20T15:49:50.696Z,1.50
2022-12-20T15:52:26.124Z,1.43
2022-12-20T15:54:55.388Z,1.80
2022-12-20T15:57:25.008Z,2.00
2022-12-20T16:00:01.078Z,1.88
2022-12-20T16:02:31.800Z,1.80
2022-12-20T16:05:00.987Z,1.65
2022-12-20T16:07:30.572Z,1.67
2022-12-20T16:10:00.006Z,1.50
2022-12-20T16:12:37.038Z,2.20
2022-12-20T16:15:07.094Z,1.60
2022-12-20T16:17:37.064Z,1.40
2022-12-20T16:20:06.390Z,2.03
2022-12-20T16:22:36.654Z,1.38
2022-12-20T16:25:05.342Z,1.87
2022-12-20T16:27:35.152Z,1.67
2022-12-20T16:30:03.324Z,1.52
2022-12-20T16:32:34.476Z,1.73
2022-12-20T16:37:37.267Z,3.70
2022-12-20T16:40:16.522Z,2.55
2022-12-20T16:42:43.509Z,2.20
2022-12-20T16:45:29.239Z,2.00
2022-12-20T16:47:57.108Z,2.50
2022-12-20T16:50:28.943Z,2.30
2022-12-20T16:52:57.792Z,2.10
2022-12-20T16:55:30.299Z,2.25
2022-12-20T16:58:00.768Z,1.90
2022-12-20T17:00:28.140Z,1.95
2022-12-20T17:02:56.170Z,1.55
2022-12-20T17:05:28.807Z,2.25
2022-12-20T17:07:58.840Z,1.58
2022-12-20T17:10:29.731Z,1.70
2022-12-20T17:13:00.239Z,1.92
2022-12-20T17:15:35.279Z,1.35
2022-12-20T17:18:16.264Z,1.30
2022-12-20T17:20:43.932Z,1.73
2022-12-20T17:25:56.780Z,16.02
2022-12-20T17:28:28.848Z,24.88
2022-12-20T17:30:59.827Z,32.92
2022-12-20T17:33:29.721Z,44.10
2022-12-20T17:35:57.625Z,56.10
2022-12-20T17:38:27.730Z,78.38
2022-12-20T17:40:57.462Z,56.25
2022-12-20T17:43:26.979Z,64.32
2022-12-20T17:45:55.799Z,48.33
2022-12-20T17:48:27.445Z,55.83
2022-12-20T17:51:00.336Z,52.67
2022-12-20T17:53:27.630Z,51.55
2022-12-20T17:55:56.229Z,52.97
2022-12-20T17:58:23.969Z,54.45
2022-12-20T18:00:51.382Z,53.88
2022-12-20T18:03:53.538Z,83.78
2022-12-20T18:06:08.270Z,69.75
2022-12-20T18:08:36.566Z,75.28
2022-12-20T18:11:04.731Z,64.50
2022-12-20T18:13:32.866Z,45.75
2022-12-20T18:16:00.690Z,57.47
2022-12-20T18:18:31.205Z,50.05
2022-12-20T18:21:05.745Z,44.85
2022-12-20T18:23:34.547Z,38.83
2022-12-20T18:26:16.315Z,34.08
2022-12-20T18:28:45.959Z,31.50
2022-12-20T18:31:16.971Z,32.75
2022-12-20T18:33:44.557Z,28.02
2022-12-20T18:36:15.723Z,29.48
2022-12-20T18:41:21.066Z,22.50
2022-12-20T18:43:48.303Z,21.50
2022-12-20T18:46:21.142Z,18.75
2022-12-20T18:48:51.798Z,19.02
2022-12-20T18:51:23.651Z,18.02
2022-12-20T18:53:54.001Z,18.75
2022-12-20T18:56:25.897Z,13.02
2022-12-20T18:58:57.653Z,12.85
2022-12-20T19:01:29.059Z,12.68
2022-12-20T19:03:57.370Z,13.10
2022-12-20T19:06:25.650Z,11.75
2022-12-20T19:08:53.229Z,10.65
2022-12-20T19:11:27.731Z,9.50
2022-12-20T19:14:00.316Z,8.10
2022-12-20T19:16:33.086Z,8.30
2022-12-20T19:19:04.801Z,8.88
2022-12-20T19:21:35.937Z,7.47
2022-12-20T19:26:38.226Z,9.48
2022-12-20T19:31:36.831Z,8.50
2022-12-20T19:34:11.734Z,7.40
2022-12-20T19:36:43.435Z,6.55
2022-12-20T19:39:18.013Z,6.57
2022-12-20T19:42:05.971Z,5.55
2022-12-20T19:44:34.606Z,4.80
2022-12-20T19:47:04.822Z,5.45
2022-12-20T19:49:32.211Z,5.03
2022-12-20T19:51:59.464Z,4.53
2022-12-20T19:54:26.896Z,4.80
2022-12-20T19:56:54.112Z,4.43
2022-12-20T19:59:23.001Z,4.00
2022-12-20T20:01:51.196Z,3.38
2022-12-20T20:04:18.563Z,3.63
2022-12-20T20:06:46.281Z,3.83
2022-12-20T20:09:17.547Z,2.47
2022-12-20T20:11:46.889Z,2.80
2022-12-20T20:14:18.550Z,2.83
2022-12-20T20:16:48.836Z,2.45
2022-12-20T20:19:15.980Z,2.53
2022-12-20T20:21:44.643Z,2.45
2022-12-20T20:24:12.280Z,2.20
2022-12-20T20:26:39.835Z,2.17
2022-12-20T20:29:09.005Z,1.90
2022-12-20T20:31:36.757Z,2.38
2022-12-20T20:34:04.437Z,2.92
2022-12-20T20:36:33.123Z,2.33
2022-12-20T20:39:00.225Z,1.83
2022-12-20T20:41:28.550Z,1.90
2022-12-20T20:43:56.288Z,1.75
2022-12-20T20:46:25.648Z,1.80
2022-12-20T20:48:53.381Z,2.13
2022-12-20T20:51:21.005Z,1.85
2022-12-20T20:53:48.245Z,1.70
2022-12-20T20:56:16.000Z,1.65
2022-12-20T20:58:43.496Z,1.25
2022-12-20T21:01:12.397Z,1.45
2022-12-20T21:03:43.912Z,1.42
2022-12-20T21:09:02.029Z,1.50
2022-12-20T21:11:29.348Z,1.77
2022-12-20T21:13:56.640Z,1.35
2022-12-20T21:16:25.486Z,1.83
2022-12-20T21:18:54.024Z,1.70
2022-12-20T21:21:21.793Z,0.95
2022-12-20T21:23:50.358Z,1.42
2022-12-20T21:26:20.753Z,1.60
2022-12-20T21:28:48.630Z,1.70
2022-12-20T21:31:18.192Z,1.35
2022-12-20T21:33:50.505Z,1.50
2022-12-20T21:36:19.898Z,1.33
2022-12-20T21:38:56.238Z,1.50
2022-12-20T21:41:30.859Z,1.70
2022-12-20T21:44:01.091Z,1.48
2022-12-20T21:46:33.047Z,1.42
2022-12-20T21:49:02.278Z,1.77
2022-12-20T21:51:32.438Z,1.50
2022-12-20T21:54:04.300Z,1.23
2022-12-20T21:56:36.008Z,1.38
2022-12-20T21:59:04.875Z,1.58
2022-12-20T22:01:36.965Z,1.67
2022-12-20T22:04:07.064Z,1.35
2022-12-20T22:06:36.573Z,1.30
2022-12-20T22:09:09.705Z,1.20
2022-12-20T22:11:42.929Z,1.52
2022-12-20T22:14:14.145Z,1.05
2022-12-20T22:16:44.826Z,1.10
2022-12-20T22:19:15.313Z,1.15
2022-12-20T22:21:58.533Z,1.20
2022-12-20T22:24:28.176Z,0.90
2022-12-20T22:26:56.512Z,1.20
2022-12-20T22:29:25.774Z,1.45
2022-12-20T22:31:55.103Z,1.20
2022-12-20T22:34:24.921Z,1.42
2022-12-20T22:36:53.556Z,1.20
2022-12-20T22:39:21.208Z,0.98
2022-12-20T22:41:48.791Z,1.02
2022-12-20T22:44:15.838Z,1.30
2022-12-20T22:49:25.373Z,1.25
2022-12-20T22:52:06.875Z,1.20
2022-12-20T22:54:36.423Z,0.75
2022-12-20T22:57:04.087Z,1.38
2022-12-20T22:59:34.612Z,1.20
2022-12-20T23:02:05.165Z,1.20
2022-12-20T23:04:35.645Z,1.27
2022-12-20T23:07:03.535Z,1.30
2022-12-20T23:09:33.479Z,1.15
2022-12-20T23:12:20.978Z,1.42
2022-12-20T23:15:31.425Z,1.23
2022-12-20T23:18:00.655Z,1.00
2022-12-20T23:20:47.540Z,1.08
2022-12-20T23:23:15.403Z,1.10
2022-12-20T23:25:47.232Z,0.95
2022-12-20T23:28:16.061Z,1.05
2022-12-20T23:30:46.621Z,1.30
2022-12-20T23:33:15.510Z,0.90
2022-12-20T23:35:44.947Z,1.00
2022-12-20T23:38:12.524Z,0.90
2022-12-20T23:40:42.349Z,1.40
2022-12-20T23:43:09.795Z,1.13
2022-12-20T23:45:39.246Z,1.27
2022-12-20T23:48:08.577Z,1.05
2022-12-20T23:50:35.841Z,1.00
2022-12-20T23:53:02.985Z,1.20
2022-12-20T23:55:30.236Z,0.90
2022-12-20T23:57:57.128Z,0.73
